Jackson County Reynolds Field
KJXN : now visible

Airfield :











YOU CAN JOIN US ON...

 
LOGIN :

Register | Disclaimer

   EN    FR    IT 

 









Legend :    VFR   Marginal VFR   IFR   Intensive IFR   Very Intensive IFR
Visi :
Ceiling :
>= 8 km
>= 3000ft
5 to 8 km
1000 to 3000 ft
1500m to 5 km
500 to 1000 ft
800 to 1500m
200 to 500 ft
< 800m
< 200 ft
Symbols :   Thunderstorms  Fog  Heavy snow  Heavy precipitations  Wind > 20 kt






- Airport Elevation : 1001 ft


KJXN - Jackson County Reynolds Field

CURRENT METAR :
  • 201956Z 09007KT 10SM SCT034 11/03 A3021 RMK AO2 SLP237 T01110033

EXPIRED METARs :
  • 201856Z 08009G18KT 10SM CLR 11/03 A3022 RMK AO2 SLP238 T01110028
  • 201756Z 07007KT 10SM CLR 11/03 A3026 RMK AO2 SLP252 T01110028 10111 20017 58015

TAF KJXN
Valid from the 20 at 18:00 until the 21 at 18:00 UTC


201740Z 2018/2118 04009KT P6SM FEW035 BKN150
FM202300 12010KT P6SM OVC025
FM210100 12010KT P6SM VCSH OVC015
FM210300 15010KT 1SM -SHRA BR OVC004
FM211300 25012G20KT P6SM OVC015
KZOB FIR / North America



MET'MAP, your aeronautical weather chart ! - Copyright ORBIFLY December 2007 - Disclaimer

ORBIFLY MET'MAP TEAM :

Programming & Development : Alexandra Zaïnal
Concept & original design : Baudouin d'Aumeries
Assistance for programming : Marc-Olivier Méhu
Technical & hardware support : Manuel Goepfert

Contact : metmap@orbifly.com




SOURCES & CREDITS :

   NOAA       Earth
Advisory